Time;durP1;ratioP1;P1;durP2;ratioP2;P2;SDS_P1;SDS_P2;PMS_P1;PMS_P2;Temp;Humidity;BMP_temperature;BMP_pressure;BME280_temperature;BME280_humidity;BME280_pressure;Samples;Min_cycle;Max_cycle;Signal;HPM_P1;HPM_P2
2022/11/04 00:02:02;;;;;;;1.63;1.05;;;13.20;99.90;;;;;;7406125;19;20565;-81
2022/11/04 00:04:28;;;;;;;1.92;1.30;;;13.30;99.90;;;;;;7401141;19;20147;-80
2022/11/04 00:06:55;;;;;;;1.73;1.40;;;13.30;99.90;;;;;;7406187;19;20139;-80
2022/11/04 00:09:26;;;;;;;2.08;1.10;;;13.30;99.90;;;;;;7403986;19;20210;-78
2022/11/04 00:14:37;;;;;;;1.65;1.13;;;13.30;99.90;;;;;;7413386;19;20152;-79
2022/11/04 00:17:20;;;;;;;2.10;1.13;;;13.30;99.90;;;;;;7412972;19;20146;-78
2022/11/04 00:33:54;;;;;;;1.73;1.00;;;13.30;99.90;;;;;;7397322;19;20143;-79
2022/11/04 00:36:21;;;;;;;1.20;0.80;;;13.40;99.90;;;;;;7395850;19;20134;-80
2022/11/04 00:38:50;;;;;;;1.07;0.90;;;13.40;99.90;;;;;;7397124;19;20414;-81
2022/11/04 00:41:25;;;;;;;1.75;1.10;;;13.60;99.90;;;;;;7393249;19;20487;-79
2022/11/04 00:43:59;;;;;;;1.45;0.88;;;13.60;99.90;;;;;;7394710;19;20139;-80
2022/11/04 00:46:26;;;;;;;0.95;0.70;;;13.50;99.90;;;;;;7394501;19;20493;-78
2022/11/04 00:48:52;;;;;;;0.73;0.53;;;13.50;99.90;;;;;;7393597;19;20639;-80
2022/11/04 00:51:20;;;;;;;0.87;0.70;;;13.50;99.90;;;;;;7392172;19;20146;-80
2022/11/04 00:53:47;;;;;;;1.40;0.75;;;13.30;99.90;;;;;;7393262;19;20158;-80
2022/11/04 00:56:13;;;;;;;0.57;0.50;;;13.40;99.90;;;;;;7395958;19;20134;-80
2022/11/04 00:58:39;;;;;;;0.80;0.70;;;13.20;99.90;;;;;;7395074;19;20142;-80
2022/11/04 01:01:16;;;;;;;0.73;0.73;;;13.10;99.90;;;;;;7392366;19;20134;-79
2022/11/04 01:03:42;;;;;;;1.00;0.80;;;13.20;99.90;;;;;;7395928;19;20611;-80
2022/11/04 01:06:08;;;;;;;1.30;0.70;;;13.40;99.90;;;;;;7393371;19;20142;-80
2022/11/04 01:08:34;;;;;;;0.80;0.77;;;13.00;99.90;;;;;;7396544;19;20624;-80
2022/11/04 01:11:04;;;;;;;0.60;0.50;;;13.10;99.90;;;;;;7392056;19;20485;-81
2022/11/04 01:13:31;;;;;;;1.08;0.70;;;13.20;99.90;;;;;;7394279;19;20139;-80
2022/11/04 01:15:58;;;;;;;0.70;0.70;;;13.00;99.90;;;;;;7393392;19;20137;-81
2022/11/04 01:18:24;;;;;;;0.70;0.70;;;13.10;99.90;;;;;;7393810;19;20616;-80
2022/11/04 01:20:49;;;;;;;0.77;0.63;;;12.90;99.90;;;;;;7394952;19;20151;-79
2022/11/04 01:23:15;;;;;;;1.88;0.75;;;12.90;99.90;;;;;;7393732;19;20131;-81
2022/11/04 01:25:41;;;;;;;0.98;0.77;;;13.20;99.90;;;;;;7390989;19;20544;-80
2022/11/04 01:28:08;;;;;;;0.60;0.60;;;13.20;99.90;;;;;;7391987;19;20206;-80
2022/11/04 01:30:36;;;;;;;0.70;0.60;;;13.30;99.90;;;;;;7391414;19;20222;-78
2022/11/04 01:33:02;;;;;;;0.63;0.60;;;13.40;99.90;;;;;;7394184;19;20138;-81
2022/11/04 01:35:27;;;;;;;0.40;0.40;;;13.30;99.90;;;;;;7392608;19;20145;-80
2022/11/04 01:37:53;;;;;;;0.70;0.65;;;13.30;99.90;;;;;;7393965;19;20130;-80
2022/11/04 01:40:19;;;;;;;1.50;0.82;;;13.30;99.90;;;;;;7391636;19;20151;-80
2022/11/04 01:42:44;;;;;;;0.60;0.60;;;13.30;99.90;;;;;;7390893;19;20163;-79
2022/11/04 01:45:15;;;;;;;1.20;0.60;;;13.00;99.90;;;;;;7393536;19;20205;-80
2022/11/04 01:47:48;;;;;;;0.82;0.70;;;12.90;99.90;;;;;;7390898;19;20146;-80
2022/11/04 01:50:20;;;;;;;0.98;0.47;;;12.70;99.90;;;;;;7394923;19;20205;-80
2022/11/04 01:53:03;;;;;;;1.00;0.60;;;12.60;99.90;;;;;;7390912;19;20259;-79
2022/11/04 01:55:33;;;;;;;1.35;0.60;;;12.90;99.90;;;;;;7394533;19;20494;-80
2022/11/04 01:58:07;;;;;;;1.63;0.68;;;13.10;99.90;;;;;;7393517;19;20146;-79
2022/11/04 02:00:32;;;;;;;0.83;0.70;;;13.00;99.90;;;;;;7394302;19;20142;-73
2022/11/04 02:03:00;;;;;;;0.70;0.70;;;13.00;99.90;;;;;;7391637;19;20150;-75
2022/11/04 02:05:28;;;;;;;0.75;0.68;;;13.20;99.90;;;;;;7390034;19;20210;-72
2022/11/04 02:07:56;;;;;;;0.60;0.52;;;13.20;99.90;;;;;;7391176;19;20150;-73
2022/11/04 02:10:25;;;;;;;0.63;0.50;;;13.30;99.90;;;;;;7390804;19;20143;-73
2022/11/04 02:12:53;;;;;;;1.92;1.42;;;13.40;99.90;;;;;;7390514;19;20139;-74
2022/11/04 02:15:38;;;;;;;0.67;0.60;;;13.40;99.90;;;;;;7391998;19;20142;-76
2022/11/04 02:18:30;;;;;;;0.82;0.68;;;13.50;99.90;;;;;;7391641;19;20142;-72
2022/11/04 02:21:19;;;;;;;0.50;0.50;;;13.10;99.90;;;;;;7391475;19;20154;-73
2022/11/04 02:24:11;;;;;;;0.80;0.70;;;13.10;99.90;;;;;;7391245;19;20175;-74
2022/11/04 02:27:14;;;;;;;0.93;0.65;;;13.00;99.90;;;;;;7391735;19;20158;-73
2022/11/04 02:29:45;;;;;;;0.60;0.50;;;13.00;99.90;;;;;;7391445;19;20142;-74
2022/11/04 02:32:33;;;;;;;0.73;0.60;;;13.10;99.90;;;;;;7398658;19;20139;-75
2022/11/04 02:35:11;;;;;;;0.98;0.60;;;13.10;99.90;;;;;;7398935;19;20142;-74
2022/11/04 02:37:58;;;;;;;1.80;0.50;;;13.20;99.90;;;;;;7395004;19;20151;-74
2022/11/04 02:40:38;;;;;;;0.73;0.73;;;13.00;99.90;;;;;;7399006;19;20155;-74
2022/11/04 02:43:40;;;;;;;0.73;0.60;;;13.10;99.90;;;;;;7400883;19;20742;-73
2022/11/04 02:46:21;;;;;;;0.52;0.40;;;13.00;99.90;;;;;;7393175;19;20170;-74
2022/11/04 02:49:01;;;;;;;1.40;0.77;;;12.90;99.90;;;;;;7396374;19;20158;-74
2022/11/04 02:51:48;;;;;;;0.60;0.52;;;13.00;99.90;;;;;;7399626;19;20134;-74
2022/11/04 02:54:32;;;;;;;1.10;0.70;;;13.00;99.90;;;;;;7398879;19;20143;-74
2022/11/04 02:57:00;;;;;;;0.88;0.70;;;12.90;99.90;;;;;;7398207;19;20168;-73
2022/11/04 02:59:43;;;;;;;1.73;0.80;;;12.90;99.90;;;;;;7396850;19;20158;-74
2022/11/04 03:02:18;;;;;;;1.13;0.82;;;12.90;99.90;;;;;;7396740;19;20175;-74
2022/11/04 03:04:49;;;;;;;0.77;0.60;;;13.00;99.90;;;;;;7394582;19;20146;-73
2022/11/04 03:07:20;;;;;;;1.63;0.50;;;13.20;99.90;;;;;;7393094;19;20150;-73
2022/11/04 03:09:52;;;;;;;0.50;0.40;;;13.10;99.90;;;;;;7399957;19;20131;-74
2022/11/04 03:12:21;;;;;;;0.50;0.50;;;13.20;99.90;;;;;;7398894;19;20210;-73
2022/11/04 03:14:52;;;;;;;0.83;0.50;;;13.30;99.90;;;;;;7393375;19;20131;-75
2022/11/04 03:17:31;;;;;;;1.52;0.60;;;13.20;99.90;;;;;;7397540;19;20131;-73
2022/11/04 03:19:59;;;;;;;0.50;0.50;;;13.30;99.90;;;;;;7395463;19;20601;-74
2022/11/04 03:22:28;;;;;;;0.67;0.50;;;13.30;99.90;;;;;;7396489;19;20131;-74
2022/11/04 03:24:54;;;;;;;0.73;0.53;;;13.10;99.90;;;;;;7393563;19;20157;-75
2022/11/04 03:27:20;;;;;;;0.50;0.50;;;13.20;99.90;;;;;;7394192;19;20521;-74
2022/11/04 03:29:59;;;;;;;0.97;0.40;;;13.20;99.90;;;;;;7393767;19;20134;-74
2022/11/04 03:32:50;;;;;;;1.43;0.47;;;13.10;99.90;;;;;;7394904;19;20142;-72
2022/11/04 03:35:17;;;;;;;1.87;0.60;;;13.00;99.90;;;;;;7394751;19;20161;-73
2022/11/04 03:37:44;;;;;;;0.63;0.53;;;12.90;99.90;;;;;;7396944;19;20130;-72
2022/11/04 03:40:11;;;;;;;0.80;0.50;;;13.00;99.90;;;;;;7399175;19;20611;-74
2022/11/04 03:42:43;;;;;;;0.40;0.40;;;13.10;99.90;;;;;;7403652;19;20146;-73
2022/11/04 03:45:13;;;;;;;0.83;0.40;;;13.30;99.90;;;;;;7401755;19;20146;-74
2022/11/04 03:47:39;;;;;;;0.97;0.50;;;13.10;99.90;;;;;;7404190;19;20174;-74
2022/11/04 03:50:22;;;;;;;1.20;0.43;;;13.10;99.90;;;;;;7406062;19;20130;-74
2022/11/04 03:52:48;;;;;;;0.80;0.50;;;12.90;99.90;;;;;;7408945;19;20468;-73
2022/11/04 03:55:14;;;;;;;1.67;0.50;;;13.00;99.90;;;;;;7401442;19;20138;-74
2022/11/04 03:58:02;;;;;;;1.03;0.50;;;13.10;99.90;;;;;;7396723;19;20142;-73
2022/11/04 04:00:37;;;;;;;1.30;0.70;;;13.10;99.90;;;;;;7395148;19;20824;-74
2022/11/04 04:03:19;;;;;;;0.47;0.47;;;12.90;99.90;;;;;;7392821;19;20198;-73
2022/11/04 04:06:17;;;;;;;3.23;0.50;;;12.80;99.90;;;;;;7390971;19;20178;-74
2022/11/04 04:08:50;;;;;;;0.40;0.40;;;12.80;99.90;;;;;;7390726;19;20147;-74
2022/11/04 04:12:01;;;;;;;0.50;0.50;;;12.80;99.90;;;;;;7394511;19;20139;-74
2022/11/04 04:14:39;;;;;;;1.47;0.63;;;12.30;99.90;;;;;;7388720;19;20160;-75
2022/11/04 04:17:28;;;;;;;0.90;0.50;;;12.30;99.90;;;;;;7391947;19;20588;-73
2022/11/04 04:20:04;;;;;;;0.98;0.70;;;12.30;99.90;;;;;;7392758;19;20710;-73
2022/11/04 04:22:40;;;;;;;0.50;0.40;;;12.20;99.90;;;;;;7394332;19;20150;-73
2022/11/04 04:27:56;;;;;;;2.40;0.50;;;12.30;99.90;;;;;;7394097;19;20154;-73
2022/11/04 04:30:22;;;;;;;1.70;0.63;;;12.40;99.90;;;;;;7394043;19;20142;-74
2022/11/04 04:33:02;;;;;;;1.20;0.63;;;12.30;99.90;;;;;;7394291;19;20164;-74
2022/11/04 04:35:43;;;;;;;1.07;0.60;;;12.40;99.90;;;;;;7394515;19;20498;-72
2022/11/04 04:46:48;;;;;;;1.47;0.70;;;12.70;99.90;;;;;;7391511;19;20540;-74
2022/11/04 04:49:14;;;;;;;1.00;0.60;;;12.80;99.90;;;;;;7393313;19;20143;-72
2022/11/04 04:51:46;;;;;;;1.43;0.60;;;12.90;99.90;;;;;;7390514;19;20658;-74
2022/11/04 04:54:12;;;;;;;0.60;0.60;;;12.90;99.90;;;;;;7391089;19;20587;-73
2022/11/04 04:56:38;;;;;;;2.80;0.70;;;12.90;99.90;;;;;;7390713;19;20173;-73
2022/11/04 04:59:04;;;;;;;0.50;0.50;;;12.90;99.90;;;;;;7394502;19;20194;-73
2022/11/04 05:01:31;;;;;;;2.40;0.70;;;12.90;99.90;;;;;;7390173;19;20142;-73
2022/11/04 05:03:56;;;;;;;1.03;0.70;;;12.90;99.90;;;;;;7390305;19;20151;-74
2022/11/04 05:06:22;;;;;;;1.13;0.60;;;12.80;99.90;;;;;;7386978;19;20534;-75
2022/11/04 05:08:48;;;;;;;1.57;0.67;;;12.70;99.90;;;;;;7392655;19;20501;-74
2022/11/04 05:11:13;;;;;;;2.77;0.50;;;12.50;99.90;;;;;;7391455;19;20147;-73
2022/11/04 05:13:39;;;;;;;1.73;0.67;;;12.50;99.90;;;;;;7391180;19;20153;-74
2022/11/04 05:16:08;;;;;;;0.87;0.50;;;12.60;99.90;;;;;;7391510;19;20162;-74
2022/11/04 05:18:34;;;;;;;1.57;0.80;;;12.20;99.90;;;;;;7391921;19;20138;-74
2022/11/04 05:21:10;;;;;;;0.60;0.57;;;12.40;99.90;;;;;;7389711;19;20458;-74
2022/11/04 05:23:36;;;;;;;1.23;0.60;;;12.30;99.90;;;;;;7391829;19;20592;-74
2022/11/04 05:26:02;;;;;;;0.90;0.70;;;11.60;99.90;;;;;;7389153;19;20140;-74
2022/11/04 05:28:28;;;;;;;2.50;0.60;;;11.60;99.90;;;;;;7387733;19;20138;-73
2022/11/04 05:30:54;;;;;;;2.43;0.80;;;11.70;99.90;;;;;;7389792;19;20728;-74
2022/11/04 05:33:20;;;;;;;1.87;0.60;;;11.80;99.90;;;;;;7393040;19;20205;-74
2022/11/04 05:35:46;;;;;;;1.00;0.60;;;11.90;99.90;;;;;;7390992;19;20541;-75
2022/11/04 05:38:12;;;;;;;1.00;0.60;;;12.00;99.90;;;;;;7388610;19;20599;-73
2022/11/04 05:40:38;;;;;;;2.00;0.70;;;12.20;99.90;;;;;;7389744;19;20223;-73
2022/11/04 05:43:05;;;;;;;0.90;0.60;;;12.30;99.90;;;;;;7392729;19;20134;-73
2022/11/04 05:45:30;;;;;;;1.87;0.70;;;12.40;99.90;;;;;;7393660;19;20593;-74
2022/11/04 05:48:01;;;;;;;1.10;0.70;;;12.40;99.90;;;;;;7392125;19;20146;-73
2022/11/04 05:50:27;;;;;;;2.33;0.70;;;12.30;99.90;;;;;;7391904;19;20158;-74
2022/11/04 05:52:56;;;;;;;1.07;0.50;;;12.10;99.90;;;;;;7392341;19;20170;-73
2022/11/04 05:55:22;;;;;;;1.13;0.90;;;11.80;99.90;;;;;;7391646;19;20178;-74
2022/11/04 05:57:47;;;;;;;1.77;0.90;;;11.70;99.90;;;;;;7392649;19;20127;-74
2022/11/04 06:00:13;;;;;;;1.47;0.80;;;11.90;99.90;;;;;;7386644;19;20122;-75
2022/11/04 06:02:40;;;;;;;2.77;0.90;;;12.20;99.90;;;;;;7391441;19;20632;-73
2022/11/04 06:05:07;;;;;;;1.53;0.80;;;12.30;99.90;;;;;;7391040;19;20601;-74
2022/11/04 06:07:33;;;;;;;5.80;3.83;;;12.40;99.90;;;;;;7398276;19;20239;-74
2022/11/04 06:09:59;;;;;;;10.03;6.00;;;12.40;99.90;;;;;;7396704;19;20139;-73
2022/11/04 06:12:25;;;;;;;3.57;1.30;;;12.20;99.90;;;;;;7398126;19;20564;-75
2022/11/04 06:14:50;;;;;;;2.67;0.93;;;12.00;99.90;;;;;;7397041;19;20127;-74
2022/11/04 06:17:18;;;;;;;2.67;0.87;;;12.10;99.90;;;;;;7399005;19;20126;-74
2022/11/04 06:19:44;;;;;;;1.23;0.60;;;12.20;99.90;;;;;;7396697;19;20159;-75
2022/11/04 06:22:12;;;;;;;1.45;0.80;;;12.20;99.90;;;;;;7394413;19;20434;-75
2022/11/04 06:24:38;;;;;;;1.47;0.80;;;12.20;99.90;;;;;;7396196;19;20150;-73
2022/11/04 06:27:04;;;;;;;1.47;0.87;;;12.10;99.90;;;;;;7400327;19;20223;-73
2022/11/04 06:29:30;;;;;;;0.90;0.60;;;12.30;99.90;;;;;;7401066;19;20135;-74
2022/11/04 06:31:55;;;;;;;2.63;0.70;;;12.30;99.90;;;;;;7392955;19;20604;-73
2022/11/04 06:34:21;;;;;;;5.30;0.70;;;12.40;99.90;;;;;;7397173;19;20187;-73
2022/11/04 06:36:48;;;;;;;1.00;0.70;;;12.40;99.90;;;;;;7398509;19;20147;-75
2022/11/04 06:39:14;;;;;;;2.37;0.90;;;12.40;99.90;;;;;;7398557;19;20620;-73
2022/11/04 06:41:40;;;;;;;1.20;0.73;;;12.30;99.90;;;;;;7394426;19;20126;-76
2022/11/04 06:44:06;;;;;;;5.13;3.03;;;11.80;99.90;;;;;;7398126;19;20641;-73
2022/11/04 06:46:37;;;;;;;11.83;6.63;;;11.50;99.90;;;;;;7396720;19;20146;-73
2022/11/04 06:49:05;;;;;;;3.00;1.60;;;11.40;99.90;;;;;;7395976;19;20130;-74
2022/11/04 06:51:32;;;;;;;2.63;0.73;;;11.70;99.90;;;;;;7396310;19;20150;-73
2022/11/04 06:53:58;;;;;;;1.63;1.03;;;11.80;99.90;;;;;;7400090;19;20206;-73
2022/11/04 06:56:24;;;;;;;4.70;1.07;;;11.70;99.90;;;;;;7396995;19;20146;-72
2022/11/04 06:58:51;;;;;;;1.90;0.90;;;11.80;99.90;;;;;;7400110;19;20134;-73
2022/11/04 07:01:18;;;;;;;1.10;0.90;;;12.10;99.90;;;;;;7397084;19;20226;-73
2022/11/04 07:03:43;;;;;;;2.50;0.80;;;12.20;99.90;;;;;;7396916;19;20639;-74
2022/11/04 07:06:10;;;;;;;1.30;0.73;;;12.20;99.90;;;;;;7394815;19;20143;-74
2022/11/04 07:08:36;;;;;;;3.80;2.50;;;12.30;99.90;;;;;;7398192;19;20165;-73
2022/11/04 07:11:02;;;;;;;5.50;3.17;;;12.30;99.90;;;;;;7398333;19;20175;-74
2022/11/04 07:13:28;;;;;;;5.67;3.20;;;12.00;99.90;;;;;;7397355;19;20169;-73
2022/11/04 07:15:54;;;;;;;3.77;1.67;;;12.20;99.90;;;;;;7396933;19;20225;-74
2022/11/04 07:18:20;;;;;;;2.47;1.37;;;12.30;99.90;;;;;;7398616;19;20511;-73
2022/11/04 07:20:46;;;;;;;3.90;1.17;;;12.40;99.90;;;;;;7394307;19;20134;-74
2022/11/04 07:23:12;;;;;;;1.97;1.00;;;12.40;99.90;;;;;;7396166;19;20153;-74
2022/11/04 07:25:37;;;;;;;5.60;1.00;;;12.50;99.90;;;;;;7392020;19;20588;-74
2022/11/04 07:28:04;;;;;;;1.43;0.70;;;12.40;99.90;;;;;;7394210;19;20183;-73
2022/11/04 07:30:30;;;;;;;3.03;1.20;;;12.00;99.90;;;;;;7393133;19;20565;-75
2022/11/04 07:32:57;;;;;;;3.43;1.00;;;12.10;99.90;;;;;;7395944;19;20497;-75
2022/11/04 07:35:22;;;;;;;2.73;1.00;;;12.20;99.90;;;;;;7393438;19;20135;-73
2022/11/04 07:37:48;;;;;;;1.33;1.03;;;12.30;99.90;;;;;;7394250;19;20138;-72
2022/11/04 07:40:14;;;;;;;4.80;3.07;;;12.40;99.90;;;;;;7391684;19;20138;-75
2022/11/04 07:42:40;;;;;;;4.63;2.77;;;12.40;99.90;;;;;;7393684;19;20138;-74
2022/11/04 07:45:09;;;;;;;4.63;2.20;;;12.40;99.90;;;;;;7393719;19;20134;-74
2022/11/04 07:47:35;;;;;;;2.57;0.90;;;12.40;99.90;;;;;;7395001;19;20142;-72
2022/11/04 07:50:01;;;;;;;2.60;1.63;;;12.50;99.90;;;;;;7394303;19;20141;-73
2022/11/04 07:52:27;;;;;;;3.00;1.70;;;12.40;99.90;;;;;;7394013;19;20480;-73
2022/11/04 07:54:53;;;;;;;3.03;1.30;;;12.50;99.90;;;;;;7393623;19;20143;-73
2022/11/04 07:57:19;;;;;;;4.30;1.10;;;12.60;99.90;;;;;;7397285;19;20233;-73
2022/11/04 07:59:44;;;;;;;3.33;1.13;;;12.80;99.90;;;;;;7395309;19;20580;-73
2022/11/04 08:02:12;;;;;;;4.60;1.27;;;12.70;99.90;;;;;;7394926;19;20147;-72
2022/11/04 08:04:40;;;;;;;4.70;1.77;;;12.70;99.90;;;;;;7393037;19;20163;-73
2022/11/04 08:07:08;;;;;;;3.70;2.10;;;12.70;99.90;;;;;;7395212;19;20218;-73
2022/11/04 08:09:37;;;;;;;1.67;1.20;;;12.50;99.90;;;;;;7395287;19;20139;-73
2022/11/04 08:12:04;;;;;;;4.90;1.30;;;12.60;99.90;;;;;;7397294;19;20163;-73
2022/11/04 08:14:30;;;;;;;2.00;1.00;;;12.70;99.90;;;;;;7395239;19;20213;-72
2022/11/04 08:16:56;;;;;;;2.07;1.10;;;12.70;99.90;;;;;;7395071;19;20143;-74
2022/11/04 08:19:22;;;;;;;1.97;1.27;;;12.70;99.90;;;;;;7391047;19;20488;-72
2022/11/04 08:21:49;;;;;;;2.20;1.27;;;12.60;99.90;;;;;;7391857;19;20221;-72
2022/11/04 08:24:15;;;;;;;2.60;1.30;;;12.60;99.90;;;;;;7392541;19;20162;-73
2022/11/04 08:26:41;;;;;;;2.37;1.53;;;12.80;99.90;;;;;;7390952;19;20155;-73
2022/11/04 08:29:07;;;;;;;1.97;0.73;;;12.80;99.90;;;;;;7393191;19;20161;-73
2022/11/04 08:31:34;;;;;;;1.47;1.10;;;12.90;99.90;;;;;;7391579;19;20146;-73
2022/11/04 08:34:00;;;;;;;2.13;1.23;;;12.90;99.90;;;;;;7390840;19;20163;-72
2022/11/04 08:36:33;;;;;;;1.83;1.23;;;13.00;99.90;;;;;;7391733;19;20608;-73
2022/11/04 08:39:00;;;;;;;2.37;1.03;;;13.00;99.90;;;;;;7394250;19;20197;-74
2022/11/04 08:41:28;;;;;;;1.73;0.80;;;13.00;99.90;;;;;;7393836;19;20149;-73
2022/11/04 08:43:59;;;;;;;1.13;0.90;;;13.10;99.90;;;;;;7393099;19;20145;-74
2022/11/04 08:46:28;;;;;;;2.67;1.20;;;13.10;99.90;;;;;;7392564;19;20155;-73
2022/11/04 08:48:54;;;;;;;1.63;1.30;;;13.10;99.90;;;;;;7391277;19;20139;-74
2022/11/04 08:51:23;;;;;;;1.73;1.00;;;13.10;99.90;;;;;;7394612;19;20157;-73
2022/11/04 08:53:48;;;;;;;2.87;1.07;;;13.30;99.90;;;;;;7390661;19;20145;-74
2022/11/04 08:56:21;;;;;;;1.37;0.80;;;13.10;99.90;;;;;;7392535;19;20213;-73
2022/11/04 08:58:46;;;;;;;1.60;1.40;;;13.10;99.90;;;;;;7393462;19;20503;-74
2022/11/04 09:01:15;;;;;;;2.03;0.87;;;13.10;99.90;;;;;;7391859;19;20127;-74
2022/11/04 09:03:43;;;;;;;1.40;0.93;;;13.00;99.90;;;;;;7391082;19;20830;-74
2022/11/04 09:06:12;;;;;;;1.13;0.70;;;13.10;99.90;;;;;;7390936;19;20138;-76
2022/11/04 09:08:42;;;;;;;4.10;0.83;;;13.00;99.90;;;;;;7393468;19;20123;-73
2022/11/04 09:11:10;;;;;;;1.27;0.83;;;12.90;99.90;;;;;;7391542;19;20141;-74
2022/11/04 09:13:37;;;;;;;1.83;0.90;;;13.00;99.90;;;;;;7392046;19;20130;-72
2022/11/04 09:16:03;;;;;;;2.53;1.00;;;13.00;99.90;;;;;;7390137;19;20131;-74
2022/11/04 09:18:29;;;;;;;1.83;0.80;;;13.20;99.90;;;;;;7391994;19;20609;-74
2022/11/04 09:20:59;;;;;;;1.70;1.20;;;13.00;99.90;;;;;;7390380;19;20141;-75
2022/11/04 09:23:25;;;;;;;2.53;1.00;;;13.00;99.90;;;;;;7390328;19;20123;-73
2022/11/04 09:25:51;;;;;;;2.07;0.90;;;13.20;99.90;;;;;;7390537;19;20728;-74
2022/11/04 09:28:17;;;;;;;0.70;0.60;;;13.30;99.90;;;;;;7391846;19;20155;-74
2022/11/04 09:30:43;;;;;;;2.73;0.80;;;13.50;99.90;;;;;;7392217;19;20522;-73
2022/11/04 09:33:09;;;;;;;3.00;1.00;;;13.30;99.90;;;;;;7391267;19;20135;-74
2022/11/04 09:35:34;;;;;;;0.93;0.80;;;13.30;99.90;;;;;;7390133;19;20156;-72
2022/11/04 09:38:00;;;;;;;1.08;0.80;;;13.20;99.90;;;;;;7392539;19;20607;-73
2022/11/04 09:40:27;;;;;;;1.00;0.70;;;13.30;99.90;;;;;;7387375;19;20508;-74
2022/11/04 09:43:04;;;;;;;2.43;1.10;;;13.20;99.90;;;;;;7392551;19;20582;-72
2022/11/04 09:45:32;;;;;;;1.60;0.80;;;13.20;99.90;;;;;;7391679;19;20142;-74
2022/11/04 09:48:03;;;;;;;5.17;3.57;;;13.10;99.90;;;;;;7391498;19;20615;-74
2022/11/04 09:50:52;;;;;;;5.43;2.43;;;13.10;99.90;;;;;;7390462;19;20227;-72
2022/11/04 09:53:42;;;;;;;4.55;2.65;;;13.20;99.90;;;;;;7391014;19;20639;-72
2022/11/04 09:56:21;;;;;;;2.47;0.97;;;13.10;99.90;;;;;;7392924;19;20146;-73
2022/11/04 09:58:48;;;;;;;1.97;1.00;;;13.40;99.90;;;;;;7388625;19;20149;-73
2022/11/04 10:01:17;;;;;;;2.90;0.90;;;13.50;99.90;;;;;;7389147;19;20134;-73
2022/11/04 10:04:01;;;;;;;2.03;1.20;;;13.50;99.90;;;;;;7389495;19;20554;-73
2022/11/04 10:06:39;;;;;;;1.65;0.70;;;13.50;99.90;;;;;;7389548;19;20151;-74
2022/11/04 10:09:39;;;;;;;3.42;0.90;;;13.60;99.90;;;;;;7390265;19;20157;-74
2022/11/04 10:12:41;;;;;;;3.33;0.83;;;13.60;99.90;;;;;;7391332;19;20129;-75
2022/11/04 10:15:09;;;;;;;2.57;0.73;;;13.70;99.90;;;;;;7388423;19;20138;-75
2022/11/04 10:17:47;;;;;;;3.15;0.50;;;13.90;99.90;;;;;;7388024;19;20143;-73
2022/11/04 10:20:41;;;;;;;1.65;0.70;;;13.80;99.90;;;;;;7390925;19;20131;-74
2022/11/04 10:23:37;;;;;;;2.60;0.80;;;13.90;99.90;;;;;;7389382;19;20532;-74
2022/11/04 10:26:19;;;;;;;1.73;1.30;;;14.00;99.90;;;;;;7387689;19;20170;-75
2022/11/04 10:29:03;;;;;;;3.70;1.13;;;13.80;99.90;;;;;;7389493;19;20166;-74
2022/11/04 10:31:29;;;;;;;5.53;1.92;;;13.90;99.90;;;;;;7388198;19;20214;-74
2022/11/04 10:34:11;;;;;;;6.18;3.28;;;13.80;99.90;;;;;;7390155;19;20159;-74
2022/11/04 10:36:38;;;;;;;2.90;1.05;;;13.60;99.90;;;;;;7391459;19;20170;-75
2022/11/04 10:39:17;;;;;;;5.07;2.33;;;13.70;99.90;;;;;;7389716;19;20135;-75
2022/11/04 10:41:44;;;;;;;2.25;1.27;;;13.60;99.90;;;;;;7387908;19;20193;-75
2022/11/04 10:44:15;;;;;;;2.15;1.20;;;13.80;99.90;;;;;;7390136;19;20143;-74
2022/11/04 10:46:59;;;;;;;3.35;0.93;;;13.80;99.90;;;;;;7385992;19;20247;-74
2022/11/04 10:49:40;;;;;;;1.00;0.60;;;13.70;99.90;;;;;;7391115;19;20472;-74
2022/11/04 10:52:07;;;;;;;2.95;1.00;;;13.70;99.90;;;;;;7392581;19;20135;-74
2022/11/04 10:54:42;;;;;;;1.60;0.98;;;13.70;99.90;;;;;;7398606;19;20143;-73
2022/11/04 10:57:10;;;;;;;2.20;1.45;;;13.90;99.90;;;;;;7395615;19;20150;-73
2022/11/04 10:59:58;;;;;;;2.20;1.33;;;14.10;99.90;;;;;;7396327;19;20131;-73
2022/11/04 11:02:36;;;;;;;2.03;1.00;;;14.00;99.90;;;;;;7396489;19;20161;-73
2022/11/04 11:05:16;;;;;;;1.33;0.80;;;14.10;99.90;;;;;;7397608;19;20139;-73
2022/11/04 11:07:53;;;;;;;4.38;1.25;;;14.00;99.90;;;;;;7395697;19;20146;-73
2022/11/04 11:10:30;;;;;;;2.00;0.80;;;14.10;99.90;;;;;;7396466;19;20154;-74
2022/11/04 11:13:03;;;;;;;1.20;0.57;;;13.90;99.90;;;;;;7396641;19;20149;-73
2022/11/04 11:15:34;;;;;;;1.77;0.85;;;13.80;99.90;;;;;;7400026;19;20142;-72
2022/11/04 11:18:13;;;;;;;1.88;1.00;;;13.60;99.90;;;;;;7399485;19;20243;-72
2022/11/04 11:20:41;;;;;;;2.35;0.93;;;13.80;99.90;;;;;;7402023;19;20202;-74
2022/11/04 11:23:38;;;;;;;3.30;1.30;;;13.80;99.90;;;;;;7398630;19;20134;-74
2022/11/04 11:26:32;;;;;;;2.15;0.90;;;13.80;99.90;;;;;;7394646;19;20146;-73
2022/11/04 11:29:02;;;;;;;0.93;0.80;;;13.80;99.90;;;;;;7394332;19;20234;-74
2022/11/04 11:31:37;;;;;;;4.03;1.30;;;14.00;99.90;;;;;;7396519;19;20142;-74
2022/11/04 11:34:12;;;;;;;3.77;1.20;;;14.10;99.90;;;;;;7395663;19;20691;-73
2022/11/04 11:36:38;;;;;;;3.70;1.30;;;13.80;99.90;;;;;;7395379;19;20159;-74
2022/11/04 11:39:11;;;;;;;5.32;0.93;;;14.00;99.90;;;;;;7395866;19;20218;-74
2022/11/04 11:41:55;;;;;;;1.52;0.73;;;14.00;99.90;;;;;;7395616;19;20139;-74
2022/11/04 11:44:45;;;;;;;3.70;0.88;;;13.90;99.90;;;;;;7393678;19;20147;-73
2022/11/04 11:47:26;;;;;;;2.40;0.77;;;13.80;99.90;;;;;;7396468;19;20153;-73
2022/11/04 11:50:24;;;;;;;1.15;0.68;;;13.80;99.90;;;;;;7394591;19;20153;-72
2022/11/04 11:52:53;;;;;;;1.98;0.80;;;13.80;99.90;;;;;;7396288;19;20149;-73
2022/11/04 11:55:27;;;;;;;2.95;0.63;;;13.90;99.90;;;;;;7395895;19;20138;-75
2022/11/04 11:57:52;;;;;;;3.00;1.00;;;14.00;99.90;;;;;;7392503;19;20503;-74
2022/11/04 12:00:21;;;;;;;2.20;0.77;;;13.90;99.90;;;;;;7393903;19;20230;-73
2022/11/04 12:03:19;;;;;;;3.60;0.90;;;13.90;99.90;;;;;;7391386;19;20158;-73
2022/11/04 12:06:12;;;;;;;1.30;0.70;;;14.10;99.90;;;;;;7394936;19;20166;-72
2022/11/04 12:08:59;;;;;;;2.63;0.73;;;14.10;99.90;;;;;;7394327;19;20158;-72
2022/11/04 12:11:54;;;;;;;3.42;0.80;;;14.10;99.90;;;;;;7392554;19;20222;-73
2022/11/04 12:14:29;;;;;;;1.48;0.70;;;14.10;99.90;;;;;;7392741;19;20225;-74
2022/11/04 12:17:22;;;;;;;3.83;1.50;;;14.00;99.90;;;;;;7394943;19;20151;-72
2022/11/04 12:20:26;;;;;;;2.08;1.02;;;14.20;99.90;;;;;;7392652;19;20170;-73
2022/11/04 12:23:16;;;;;;;1.40;0.80;;;14.20;99.90;;;;;;7397844;19;20138;-74
2022/11/04 12:25:59;;;;;;;2.00;0.82;;;14.20;99.90;;;;;;7390981;19;20154;-72
2022/11/04 12:28:36;;;;;;;0.98;0.70;;;14.20;99.90;;;;;;7396298;19;20623;-72
2022/11/04 12:31:25;;;;;;;1.52;0.70;;;14.20;99.90;;;;;;7392479;19;20511;-74
2022/11/04 12:34:16;;;;;;;2.70;0.95;;;14.20;99.90;;;;;;7392128;19;20616;-72
2022/11/04 12:37:00;;;;;;;2.30;0.70;;;14.10;99.90;;;;;;7393755;19;20165;-72
2022/11/04 12:39:29;;;;;;;2.83;1.00;;;14.00;99.90;;;;;;7392263;19;20150;-72
2022/11/04 12:42:27;;;;;;;3.70;1.00;;;14.10;99.90;;;;;;7394230;19;20471;-74
2022/11/04 12:45:11;;;;;;;4.57;0.80;;;14.30;99.90;;;;;;7392160;19;20491;-73
2022/11/04 12:47:44;;;;;;;4.82;1.40;;;14.30;99.90;;;;;;7394717;19;20194;-72
2022/11/04 12:50:41;;;;;;;2.45;1.08;;;14.30;99.90;;;;;;7392787;19;20158;-74
2022/11/04 12:53:21;;;;;;;2.35;1.00;;;14.30;99.90;;;;;;7391448;19;20149;-74
2022/11/04 12:56:11;;;;;;;3.22;1.13;;;14.30;99.90;;;;;;7394342;19;20162;-73
2022/11/04 12:59:14;;;;;;;2.92;0.60;;;14.30;99.90;;;;;;7393177;19;20475;-74
2022/11/04 13:01:55;;;;;;;2.33;0.75;;;14.30;99.90;;;;;;7392735;19;20138;-74
2022/11/04 13:04:24;;;;;;;1.80;0.70;;;14.40;99.90;;;;;;7390963;19;20154;-73
2022/11/04 13:07:23;;;;;;;4.30;0.80;;;14.30;99.90;;;;;;7392390;19;20175;-73
2022/11/04 13:09:56;;;;;;;2.35;0.70;;;14.20;99.90;;;;;;7391551;19;20165;-74
2022/11/04 13:12:35;;;;;;;3.67;1.48;;;14.20;99.90;;;;;;7392332;19;20134;-74
2022/11/04 13:15:11;;;;;;;2.70;1.13;;;14.30;99.90;;;;;;7390323;19;20157;-73
2022/11/04 13:17:40;;;;;;;2.78;0.60;;;14.40;99.90;;;;;;7390794;19;20159;-75
2022/11/04 13:20:14;;;;;;;4.10;0.75;;;14.60;99.90;;;;;;7389848;19;20134;-74
2022/11/04 13:22:45;;;;;;;2.08;0.80;;;14.50;99.90;;;;;;7390851;19;20129;-73
2022/11/04 13:25:32;;;;;;;4.28;0.98;;;14.50;99.90;;;;;;7392628;19;20130;-72
2022/11/04 13:27:58;;;;;;;1.45;0.70;;;14.40;99.90;;;;;;7392672;19;20134;-72
2022/11/04 13:30:43;;;;;;;3.00;0.80;;;14.50;99.90;;;;;;7391899;19;20243;-72
2022/11/04 13:33:30;;;;;;;4.18;1.10;;;14.50;99.90;;;;;;7391075;19;20134;-72
2022/11/04 13:36:37;;;;;;;2.22;0.80;;;14.60;99.90;;;;;;7392988;19;20523;-72
2022/11/04 13:39:19;;;;;;;2.67;0.90;;;14.60;99.90;;;;;;7391591;19;20147;-72
2022/11/04 13:42:09;;;;;;;2.00;0.85;;;14.50;99.90;;;;;;7389039;19;20527;-72
2022/11/04 13:44:39;;;;;;;3.33;0.70;;;14.50;99.90;;;;;;7389087;19;20161;-72
2022/11/04 13:47:16;;;;;;;3.05;0.90;;;14.40;99.90;;;;;;7390770;19;20591;-71